This is the latest recevied weather packets stored in our database for station/object HB9UQS-13. If no packets are shown the sender has not sent any weather packets the latest 10 day(s).
| Time | Temp. | Humidity | Pressure | Rain* | Wind** | Luminosity | Snow |
|---|---|---|---|---|---|---|---|
| 1778031450 | 7.22° C | 89% | 923.2 hPa | 0 mm | - | 0 W/m² | - |
| 1778029650 | 8.89° C | 88% | 923.5 hPa | 0 mm | - | 0 W/m² | - |
| 1778027850 | 9.44° C | 90% | 924.1 hPa | 0 mm | - | 0 W/m² | - |
| 1778026050 | 9.44° C | 91% | 924.4 hPa | 0 mm | - | 0 W/m² | - |
| 1778024251 | 8.89° C | 93% | 924.5 hPa | 0 mm | - | 0 W/m² | - |
| 1778022450 | 9.44° C | 88% | 924.9 hPa | 0 mm | - | 0 W/m² | - |
| 1778020650 | 9.44° C | 91% | 924.9 hPa | 0 mm | - | 0 W/m² | - |
| 1778018850 | 8.33° C | 93% | 924.8 hPa | 0 mm | - | 0 W/m² | - |
| 1778017050 | 8.33° C | 92% | 924.9 hPa | 0 mm | - | 0 W/m² | - |
| 1778015250 | 8.33° C | 92% | 925 hPa | 0 mm | - | 0 W/m² | - |
| 1778013450 | 7.78° C | 92% | 925 hPa | 0 mm | - | 0 W/m² | - |
| 1778011650 | 7.22° C | 92% | 924.9 hPa | 0 mm | - | 0 W/m² | - |
| 1778009850 | 7.78° C | 89% | 924.6 hPa | 0 mm | - | 0 W/m² | - |
| 1778008050 | 10° C | 81% | 924.4 hPa | 0 mm | - | 0 W/m² | - |
| 1778006250 | 11.11° C | 75% | 924.2 hPa | 0 mm | - | 0 W/m² | - |
| 1778004450 | 11.67° C | 74% | 924 hPa | 0 mm | - | 0 W/m² | - |
| 1778002650 | 12.78° C | 72% | 924.2 hPa | 0 mm | - | 0 W/m² | - |
| 1778000850 | 12.22° C | 78% | 924.6 hPa | 0 mm | - | 0 W/m² | - |
| 1777999050 | 13.33° C | 81% | 924.4 hPa | 0 mm | - | 0 W/m² | - |
| 1777997250 | 11.67° C | 85% | 924.2 hPa | 0 mm | - | 0 W/m² | - |
| 1777995450 | 12.22° C | 87% | 924.1 hPa | 0 mm | - | 0 W/m² | - |
| 1777993650 | 12.78° C | 87% | 924.2 hPa | 0 mm | - | 0 W/m² | - |
| 1777991851 | 11.67° C | 89% | 924.1 hPa | 0 mm | - | 0 W/m² | - |
| 1777990050 | 11.67° C | 91% | 923.9 hPa | 0 mm | - | 0 W/m² | - |
| 1777988250 | 11.11° C | 92% | 924 hPa | 0 mm | - | 0 W/m² | - |
* Rain latest hour (hover to see other rain measurements)
** Current wind speed in m/s (hover to see current wind gust speed)